Time;durP1;ratioP1;P1;durP2;ratioP2;P2;SDS_P1;SDS_P2;PMS_P1;PMS_P2;Temp;Humidity;BMP_temperature;BMP_pressure;BME280_temperature;BME280_humidity;BME280_pressure;Samples;Min_cycle;Max_cycle;Signal;HPM_P1;HPM_P2
2022/06/23 00:02:32;;;;;;;8.88;2.72;;;;;;;18.37;62.69;101187.38;5072865;28;20047;-36
2022/06/23 00:05:01;;;;;;;5.70;3.33;;;;;;;18.27;64.47;101171.78;5076036;28;20442;-36
2022/06/23 00:07:29;;;;;;;5.85;2.65;;;;;;;18.29;65.30;101188.75;5076451;28;20093;-36
2022/06/23 00:09:55;;;;;;;6.30;3.30;;;;;;;18.08;66.34;101184.38;5076556;28;20487;-36
2022/06/23 00:12:38;;;;;;;6.30;3.15;;;;;;;18.07;66.61;101182.75;5076426;28;20361;-36
2022/06/23 00:15:04;;;;;;;5.40;2.95;;;;;;;18.16;66.39;101172.91;5076648;28;20089;-36
2022/06/23 00:18:03;;;;;;;6.07;3.47;;;;;;;18.16;65.21;101184.66;5076473;28;20029;-36
2022/06/23 00:20:38;;;;;;;7.95;3.42;;;;;;;17.95;67.78;101158.34;5053839;28;20048;-36
2022/06/23 00:23:15;;;;;;;6.07;3.28;;;;;;;18.01;67.94;101181.91;5054254;28;20485;-36
2022/06/23 00:25:48;;;;;;;5.97;3.33;;;;;;;17.94;68.87;101178.63;5053903;28;20048;-36
2022/06/23 00:28:18;;;;;;;6.30;3.80;;;;;;;17.92;68.81;101180.81;5054116;28;20091;-36
2022/06/23 00:30:44;;;;;;;7.22;3.63;;;;;;;17.88;69.77;101171.50;5054082;28;20037;-36
2022/06/23 00:33:40;;;;;;;8.40;3.90;;;;;;;17.93;68.83;101176.97;5053513;28;20028;-36
2022/06/23 00:36:26;;;;;;;7.65;3.83;;;;;;;17.89;69.36;101176.69;5052616;28;20044;-36
2022/06/23 00:38:51;;;;;;;6.40;3.60;;;;;;;17.87;69.65;101167.13;5054216;28;20441;-36
2022/06/23 00:41:21;;;;;;;7.05;3.67;;;;;;;17.85;70.73;101175.59;5053295;28;20036;-36
2022/06/23 00:43:49;;;;;;;7.93;4.13;;;;;;;17.87;71.51;101176.16;5053407;28;20379;-36
2022/06/23 00:46:37;;;;;;;7.57;4.43;;;;;;;17.78;71.87;101185.16;5053837;28;20029;-36
2022/06/23 00:49:27;;;;;;;11.25;4.32;;;;;;;17.81;71.34;101185.41;5053207;28;20025;-36
2022/06/23 00:51:59;;;;;;;6.05;3.72;;;;;;;17.60;73.01;101161.84;5053859;28;20564;-36
2022/06/23 00:54:32;;;;;;;7.75;4.25;;;;;;;17.71;72.18;101167.06;5052992;28;20033;-36
2022/06/23 00:57:06;;;;;;;8.70;4.40;;;;;;;17.70;72.62;101187.28;5066504;28;20098;-36
2022/06/23 00:59:44;;;;;;;8.48;3.90;;;;;;;17.74;71.87;101180.22;5075668;28;20443;-36
2022/06/23 01:02:16;;;;;;;7.57;4.00;;;;;;;17.70;73.21;101181.00;5075245;28;20033;-36
2022/06/23 01:05:00;;;;;;;13.27;4.53;;;;;;;17.79;71.63;101173.94;5075715;28;20032;-36
2022/06/23 01:07:40;;;;;;;6.82;4.03;;;;;;;17.65;73.16;101170.06;5076049;28;20054;-36
2022/06/23 01:10:14;;;;;;;5.55;3.92;;;;;;;17.64;73.28;101173.88;5075502;28;20032;-36
2022/06/23 01:12:45;;;;;;;6.50;4.07;;;;;;;17.59;74.44;101166.50;5075279;28;20050;-36
2022/06/23 01:15:10;;;;;;;7.22;3.90;;;;;;;17.58;74.39;101156.66;5074068;28;20435;-36
2022/06/23 01:17:50;;;;;;;6.63;4.07;;;;;;;17.61;74.15;101152.53;5075418;28;20105;-36
2022/06/23 01:20:38;;;;;;;6.95;4.18;;;;;;;17.61;74.15;101167.03;5075036;28;20271;-36
2022/06/23 01:23:28;;;;;;;7.22;4.28;;;;;;;17.62;73.89;101165.13;5074781;28;20078;-36
2022/06/23 01:25:54;;;;;;;8.20;4.90;;;;;;;17.53;75.73;101155.81;5074805;28;20020;-36
2022/06/23 01:28:24;;;;;;;;;;;;;;;17.62;73.44;101149.56;5075874;28;20467;-36
2022/06/23 01:31:03;;;;;;;8.27;4.72;;;;;;;17.46;74.80;101142.38;5074766;28;19908;-36
2022/06/23 01:33:38;;;;;;;12.18;4.45;;;;;;;17.48;76.02;101154.72;5075269;28;20036;-36
2022/06/23 01:36:11;;;;;;;6.80;4.55;;;;;;;17.34;76.37;101133.63;5074978;28;20062;-36
2022/06/23 01:38:49;;;;;;;10.20;5.03;;;;;;;17.48;75.14;101159.34;5075274;28;20033;-36
2022/06/23 01:41:31;;;;;;;9.32;4.45;;;;;;;17.50;75.08;101154.44;5074697;28;20059;-36
2022/06/23 01:44:36;;;;;;;9.05;4.93;;;;;;;17.47;75.76;101147.59;5075083;28;20081;-36
2022/06/23 01:47:13;;;;;;;8.45;5.00;;;;;;;17.27;77.33;101152.16;5074184;28;20392;-36
2022/06/23 01:49:43;;;;;;;8.23;4.40;;;;;;;17.28;77.68;101164.78;5074369;28;20036;-36
2022/06/23 01:52:12;;;;;;;10.55;4.85;;;;;;;17.28;77.81;101165.59;5074639;28;20025;-36
2022/06/23 01:54:39;;;;;;;6.30;4.03;;;;;;;17.29;77.51;101161.75;5074283;28;20032;-36
2022/06/23 01:57:09;;;;;;;11.38;5.38;;;;;;;17.31;77.14;101170.50;5074367;28;20071;-36
2022/06/23 01:59:40;;;;;;;9.18;4.63;;;;;;;17.18;77.55;101166.38;5074402;28;20048;-36
2022/06/23 02:02:24;;;;;;;8.48;4.78;;;;;;;17.20;76.85;101158.72;5074645;28;20066;-36
2022/06/23 02:05:02;;;;;;;7.32;4.75;;;;;;;17.12;77.47;101150.19;5074039;28;20029;-36
2022/06/23 02:07:39;;;;;;;9.02;4.65;;;;;;;17.12;77.76;101159.22;5073764;28;20136;-36
2022/06/23 02:10:21;;;;;;;7.45;4.57;;;;;;;17.19;77.00;101151.63;5074279;28;20029;-36
2022/06/23 02:13:17;;;;;;;9.20;4.90;;;;;;;17.17;76.83;101152.94;5074722;28;20355;-36
2022/06/23 02:16:10;;;;;;;7.90;4.72;;;;;;;17.17;77.03;101161.16;5073806;28;20113;-36
2022/06/23 02:18:49;;;;;;;7.93;4.15;;;;;;;17.10;77.33;101155.94;5074358;28;20035;-36
2022/06/23 02:21:26;;;;;;;7.18;4.95;;;;;;;17.14;77.19;101154.31;5074554;28;20086;-35
2022/06/23 02:24:19;;;;;;;8.85;5.15;;;;;;;17.10;76.90;101147.75;5074459;28;20036;-35
2022/06/23 02:27:05;;;;;;;9.82;5.38;;;;;;;17.10;77.14;101152.41;5073599;28;20078;-35
2022/06/23 02:29:34;;;;;;;8.50;5.17;;;;;;;16.97;77.50;101151.78;5073673;28;20032;-35
2022/06/23 02:32:25;;;;;;;9.27;4.78;;;;;;;16.92;77.16;101129.09;5073625;28;20151;-35
2022/06/23 02:35:21;;;;;;;6.50;4.53;;;;;;;17.14;76.14;101159.78;5074264;28;20408;-35
2022/06/23 02:38:01;;;;;;;8.40;4.82;;;;;;;17.04;76.86;101145.28;5074029;28;20104;-35
2022/06/23 02:40:32;;;;;;;9.82;4.95;;;;;;;16.98;78.02;101147.97;5073736;28;20112;-35
2022/06/23 02:43:20;;;;;;;8.82;4.85;;;;;;;16.97;76.81;101149.03;5073444;28;20032;-35
2022/06/23 02:46:17;;;;;;;9.07;4.90;;;;;;;16.92;77.64;101154.47;5074024;28;20104;-35
2022/06/23 02:49:16;;;;;;;8.13;4.97;;;;;;;16.87;76.94;101148.19;5072878;28;20082;-36
2022/06/23 02:52:06;;;;;;;7.30;4.97;;;;;;;16.83;76.98;101153.34;5073292;28;20103;-36
2022/06/23 02:54:40;;;;;;;8.38;4.85;;;;;;;16.81;77.32;101149.25;5073474;28;20028;-36
2022/06/23 02:57:24;;;;;;;9.73;5.57;;;;;;;16.82;76.94;101142.69;5073337;28;20454;-36
2022/06/23 02:59:58;;;;;;;8.48;5.03;;;;;;;16.78;77.64;101141.56;5073904;28;20056;-36
2022/06/23 03:02:52;;;;;;;12.48;5.47;;;;;;;16.72;76.96;101130.63;5073712;28;20357;-36
2022/06/23 03:05:40;;;;;;;7.20;5.10;;;;;;;16.66;77.84;101142.59;5073723;28;20033;-36
2022/06/23 03:08:28;;;;;;;7.60;4.95;;;;;;;16.70;76.66;101138.25;5073812;28;20368;-36
2022/06/23 03:11:02;;;;;;;9.27;5.65;;;;;;;16.64;77.27;101131.13;5072978;28;20496;-36
2022/06/23 03:13:46;;;;;;;9.73;5.20;;;;;;;16.71;76.65;101129.00;5073566;28;20031;-36
2022/06/23 03:16:23;;;;;;;9.05;5.53;;;;;;;16.59;77.12;101128.34;5072872;28;20107;-36
2022/06/23 03:18:58;;;;;;;7.65;4.53;;;;;;;16.61;76.66;101128.09;5073194;28;20082;-36
2022/06/23 03:21:30;;;;;;;9.77;5.10;;;;;;;16.48;76.90;101113.81;5072893;28;20063;-38
2022/06/23 03:24:08;;;;;;;9.05;5.32;;;;;;;16.53;76.79;101120.38;5073554;28;20025;-36
2022/06/23 03:26:43;;;;;;;9.85;5.70;;;;;;;16.48;76.78;101118.44;5072838;28;20028;-36
2022/06/23 03:29:21;;;;;;;8.50;5.27;;;;;;;16.49;76.62;101125.53;5072842;28;20028;-36
2022/06/23 03:32:18;;;;;;;7.18;4.80;;;;;;;16.39;76.38;101115.38;5073487;28;20259;-36
2022/06/23 03:34:43;;;;;;;12.52;5.68;;;;;;;16.22;76.08;101093.72;5073205;28;20032;-35
2022/06/23 03:37:14;;;;;;;;;;;;;;;16.42;75.76;101105.84;5073920;28;20060;-35
2022/06/23 03:42:45;;;;;;;7.90;5.28;;;;;;;16.30;75.78;101110.66;5077052;28;20136;-35
2022/06/23 03:45:20;;;;;;;10.75;5.70;;;;;;;16.28;75.83;101116.41;5075733;28;20037;-39
2022/06/23 03:47:59;;;;;;;12.23;5.35;;;;;;;16.25;75.47;101107.91;5077500;28;20025;-35
2022/06/23 03:50:31;;;;;;;9.40;4.70;;;;;;;16.33;75.00;101112.88;5076589;28;20039;-35
2022/06/23 03:53:02;;;;;;;8.43;4.50;;;;;;;16.23;74.80;101100.81;5077150;28;20032;-35
2022/06/23 03:55:37;;;;;;;7.78;4.50;;;;;;;16.31;74.78;101118.63;5077255;28;20403;-35
2022/06/23 03:58:24;;;;;;;6.75;4.45;;;;;;;16.23;74.65;101106.28;5076578;28;20052;-35
2022/06/23 04:01:00;;;;;;;8.20;4.20;;;;;;;16.28;75.03;101129.22;5076037;28;20182;-35
2022/06/23 04:03:36;;;;;;;7.55;4.43;;;;;;;16.29;74.00;101119.94;5076530;28;20456;-36
2022/06/23 04:06:18;;;;;;;6.13;4.53;;;;;;;16.36;74.23;101126.84;5076545;28;20024;-36
2022/06/23 04:08:53;;;;;;;5.13;4.22;;;;;;;16.35;74.00;101129.84;5076280;28;20029;-36
2022/06/23 04:14:09;;;;;;;6.30;4.13;;;;;;;16.43;73.55;101123.88;5076731;28;20044;-36
2022/06/23 04:16:37;;;;;;;7.68;4.43;;;;;;;16.43;73.10;101121.13;5076174;28;20029;-36
2022/06/23 04:19:19;;;;;;;6.65;4.53;;;;;;;16.40;72.76;101116.22;5075819;28;20025;-36
2022/06/23 04:21:50;;;;;;;7.95;4.47;;;;;;;16.45;73.03;101119.00;5076327;28;20079;-36
2022/06/23 04:24:20;;;;;;;8.20;4.18;;;;;;;16.46;73.34;101118.72;5076589;28;20373;-36
2022/06/23 04:26:51;;;;;;;8.73;4.75;;;;;;;16.45;73.07;101113.53;5076223;28;20480;-36
2022/06/23 04:29:22;;;;;;;7.40;4.90;;;;;;;16.53;72.84;101115.75;5075947;28;20028;-36
2022/06/23 04:31:51;;;;;;;5.78;4.05;;;;;;;16.56;73.50;101119.88;5076401;28;20033;-36
2022/06/23 04:34:29;;;;;;;8.30;4.88;;;;;;;16.63;72.56;101126.72;5076488;28;20025;-36
2022/06/23 04:36:55;;;;;;;8.48;4.70;;;;;;;16.66;72.93;101115.28;5076175;28;20074;-36
2022/06/23 04:39:31;;;;;;;6.10;4.28;;;;;;;16.70;72.76;101124.59;5075737;28;20081;-36
2022/06/23 04:42:10;;;;;;;7.05;4.80;;;;;;;16.73;72.36;101129.53;5075916;28;20111;-35
2022/06/23 04:44:44;;;;;;;7.22;4.78;;;;;;;16.82;72.60;101123.56;5075774;28;20494;-36
2022/06/23 04:47:18;;;;;;;6.80;4.53;;;;;;;16.84;72.42;101100.38;5075607;28;20033;-36
2022/06/23 04:49:57;;;;;;;6.50;4.53;;;;;;;17.01;71.32;101100.16;5075461;28;20488;-36
2022/06/23 04:52:38;;;;;;;7.00;4.22;;;;;;;16.97;70.82;101099.06;5074100;28;20499;-36
2022/06/23 04:55:34;;;;;;;5.53;4.80;;;;;;;17.06;69.70;101108.38;5075632;28;20081;-36
2022/06/23 04:58:06;;;;;;;6.82;4.28;;;;;;;17.19;69.54;101137.13;5036922;28;20389;-36
2022/06/23 05:00:48;;;;;;;8.52;4.40;;;;;;;17.28;69.18;101129.25;5053255;28;20049;-36
2022/06/23 05:03:35;;;;;;;7.50;4.57;;;;;;;17.36;68.71;101125.97;5053496;28;20048;-36
2022/06/23 05:06:00;;;;;;;;;;;;;;;17.48;68.89;101127.38;5053231;28;20036;-36
2022/06/23 05:08:31;;;;;;;6.00;4.40;;;;;;;17.48;68.39;101134.75;5053345;28;19997;-36
2022/06/23 05:11:32;;;;;;;6.72;4.22;;;;;;;17.56;68.50;101127.91;5036254;28;20090;-36
2022/06/23 05:14:02;;;;;;;12.10;4.63;;;;;;;17.51;69.23;101113.16;5042641;28;20128;-36
2022/06/23 05:16:33;;;;;;;8.32;4.65;;;;;;;17.61;68.42;101127.94;5052993;28;20444;-36
2022/06/23 05:19:06;;;;;;;6.53;4.70;;;;;;;17.67;68.04;101124.13;5053192;28;20094;-36
2022/06/23 05:21:39;;;;;;;7.55;4.82;;;;;;;17.72;68.28;101111.28;5052742;28;20504;-36
2022/06/23 05:24:12;;;;;;;6.00;4.45;;;;;;;17.89;67.16;101116.50;5053035;28;20128;-36
2022/06/23 05:27:02;;;;;;;8.52;5.10;;;;;;;17.87;67.35;101115.16;5053090;28;20036;-37
2022/06/23 05:29:35;;;;;;;8.52;4.80;;;;;;;18.06;66.95;101124.47;5053237;28;20033;-36
2022/06/23 05:32:06;;;;;;;7.60;4.80;;;;;;;18.13;67.01;101122.25;5052835;28;20036;-36
2022/06/23 05:34:45;;;;;;;7.97;4.53;;;;;;;18.24;64.84;101126.63;5065653;28;20370;-36
2022/06/23 05:37:25;;;;;;;8.05;4.82;;;;;;;18.39;65.35;101128.50;5074985;28;20039;-36
2022/06/23 05:40:10;;;;;;;8.20;4.80;;;;;;;18.39;65.22;101124.94;5075195;28;20029;-36
2022/06/23 05:42:40;;;;;;;7.50;5.35;;;;;;;18.43;64.75;101106.88;5074836;28;20484;-36
2022/06/23 05:45:13;;;;;;;10.23;5.57;;;;;;;18.48;65.55;101109.59;5074209;28;20056;-36
2022/06/23 05:47:39;;;;;;;8.18;5.68;;;;;;;18.52;65.03;101113.44;5074693;28;20032;-36
2022/06/23 05:50:08;;;;;;;8.02;5.22;;;;;;;18.56;64.53;101097.28;5074144;28;20409;-36
2022/06/23 05:52:38;;;;;;;9.15;5.15;;;;;;;18.63;64.27;101093.13;5074889;28;20040;-36
2022/06/23 05:55:13;;;;;;;9.43;5.28;;;;;;;18.82;64.62;101103.50;5073344;28;20024;-36
2022/06/23 05:57:56;;;;;;;7.30;4.82;;;;;;;18.84;64.15;101109.53;5074897;28;20074;-36
2022/06/23 06:00:34;;;;;;;9.57;5.32;;;;;;;18.91;63.71;101116.34;5073701;28;20057;-36
2022/06/23 06:03:09;;;;;;;6.38;5.03;;;;;;;18.97;63.19;101108.94;5074461;28;20415;-36
2022/06/23 06:05:41;;;;;;;6.93;5.05;;;;;;;19.04;64.03;101114.94;5074217;28;20032;-36
2022/06/23 06:08:20;;;;;;;10.13;4.93;;;;;;;19.10;63.03;101108.31;5074839;28;20024;-35
2022/06/23 06:10:47;;;;;;;8.50;5.30;;;;;;;19.15;63.26;101094.59;5073705;28;20466;-35
2022/06/23 06:13:23;;;;;;;8.77;5.40;;;;;;;19.30;62.57;101091.75;5074219;28;20032;-35
2022/06/23 06:15:53;;;;;;;6.07;4.60;;;;;;;19.54;61.97;101113.00;5074040;28;20059;-35
2022/06/23 06:18:23;;;;;;;6.63;4.00;;;;;;;19.56;61.46;101119.03;5073914;28;20033;-36
2022/06/23 06:20:52;;;;;;;7.57;4.30;;;;;;;19.63;61.54;101105.84;5074014;28;20028;-35
2022/06/23 06:23:54;;;;;;;8.60;4.07;;;;;;;19.75;60.70;101114.53;5074118;28;20035;-35
2022/06/23 06:26:27;;;;;;;5.10;3.85;;;;;;;19.84;60.85;101116.69;5074339;28;20034;-35
2022/06/23 06:28:59;;;;;;;14.13;5.10;;;;;;;19.97;61.08;101110.53;5073417;28;20028;-35
2022/06/23 06:31:34;;;;;;;6.78;4.15;;;;;;;20.10;60.57;101114.53;5073854;28;20025;-36
2022/06/23 06:34:13;;;;;;;7.57;4.45;;;;;;;20.07;60.17;101104.97;5073784;28;20488;-35
2022/06/23 06:36:44;;;;;;;7.95;3.58;;;;;;;20.14;61.10;101096.38;5073268;28;20546;-35
2022/06/23 06:39:19;;;;;;;5.57;4.50;;;;;;;20.15;60.04;101096.06;5073095;28;20031;-36
2022/06/23 06:41:53;;;;;;;7.65;4.30;;;;;;;20.27;61.11;101110.25;5074458;28;20031;-35
2022/06/23 06:44:19;;;;;;;9.20;4.43;;;;;;;20.38;61.39;101110.97;5073508;28;20036;-36
2022/06/23 06:46:46;;;;;;;4.97;3.85;;;;;;;20.45;59.93;101116.94;5073826;28;20033;-36
2022/06/23 06:49:23;;;;;;;7.03;3.90;;;;;;;20.54;59.52;101119.88;5073061;28;20043;-36
2022/06/23 06:51:50;;;;;;;8.75;4.32;;;;;;;20.60;59.37;101124.25;5073249;28;20079;-36
2022/06/23 06:54:23;;;;;;;7.47;4.10;;;;;;;20.68;59.07;101115.34;5072908;28;20517;-36
2022/06/23 06:56:57;;;;;;;10.20;4.10;;;;;;;20.73;59.37;101120.78;5073200;28;20468;-36
2022/06/23 06:59:38;;;;;;;9.63;4.65;;;;;;;20.68;59.87;101109.84;5073419;28;20071;-36
2022/06/23 07:02:13;;;;;;;10.75;4.40;;;;;;;20.81;59.75;101113.84;5073133;28;20530;-36
2022/06/23 07:04:48;;;;;;;8.70;4.40;;;;;;;20.87;59.90;101106.34;5072716;28;20115;-36
2022/06/23 07:07:21;;;;;;;14.20;4.93;;;;;;;20.93;61.02;101103.22;5073631;28;20060;-36
2022/06/23 07:09:50;;;;;;;9.65;4.50;;;;;;;21.08;59.38;101113.19;5073318;28;20484;-36
2022/06/23 07:12:21;;;;;;;7.22;4.55;;;;;;;21.15;60.20;101108.19;5073370;28;20119;-36
2022/06/23 07:14:50;;;;;;;7.72;4.60;;;;;;;21.16;59.43;101109.81;5072989;28;20040;-36
2022/06/23 07:17:29;;;;;;;6.72;4.68;;;;;;;21.15;60.02;101102.69;5072764;28;20058;-36
2022/06/23 07:20:11;;;;;;;9.23;4.72;;;;;;;21.19;59.90;101109.22;5073225;28;20027;-36
2022/06/23 07:22:43;;;;;;;7.22;4.57;;;;;;;21.31;60.36;101128.88;5072902;28;20021;-36
2022/06/23 07:25:17;;;;;;;10.52;5.45;;;;;;;21.46;59.73;101124.28;5072770;28;20040;-36
2022/06/23 07:27:50;;;;;;;5.82;4.47;;;;;;;21.55;59.75;101119.75;5073441;28;20479;-36
2022/06/23 07:30:21;;;;;;;7.82;5.18;;;;;;;21.64;61.13;101126.22;5072559;28;20522;-36
2022/06/23 07:33:10;;;;;;;9.73;5.47;;;;;;;21.77;60.14;101124.66;5073097;28;20073;-36
2022/06/23 07:35:54;;;;;;;9.80;5.53;;;;;;;21.76;59.81;101117.50;5073054;28;20021;-36
2022/06/23 07:39:10;;;;;;;11.98;5.85;;;;;;;21.89;60.11;101122.25;5073213;28;20028;-36
2022/06/23 07:41:42;;;;;;;8.80;5.70;;;;;;;21.95;60.54;101120.22;5050789;28;20526;-36
2022/06/23 07:44:17;;;;;;;9.68;5.65;;;;;;;21.99;60.69;101107.50;5050396;28;20162;-36
2022/06/23 07:46:43;;;;;;;8.02;5.80;;;;;;;22.03;59.57;101092.00;5050724;28;20040;-36
2022/06/23 07:49:08;;;;;;;8.55;6.25;;;;;;;22.11;59.24;101102.38;5050454;28;20037;-36
2022/06/23 07:51:38;;;;;;;10.55;6.05;;;;;;;22.32;60.24;101108.31;5050092;28;20043;-36
2022/06/23 07:54:05;;;;;;;10.77;5.90;;;;;;;22.44;60.26;101103.13;5050860;28;20064;-36
2022/06/23 07:56:34;;;;;;;12.13;6.05;;;;;;;22.57;60.66;101104.28;5050234;28;20103;-36
2022/06/23 07:59:04;;;;;;;10.60;6.07;;;;;;;22.68;60.21;101105.69;5050345;28;20387;-36
2022/06/23 08:01:34;;;;;;;10.10;6.13;;;;;;;22.77;59.49;101101.09;5050630;28;20037;-36
2022/06/23 08:04:23;;;;;;;10.18;6.25;;;;;;;22.91;58.96;101097.56;5050088;28;20025;-36
2022/06/23 08:06:50;;;;;;;9.38;7.30;;;;;;;22.96;59.35;101108.47;5050519;28;20114;-36
2022/06/23 08:09:24;;;;;;;12.20;6.60;;;;;;;23.02;59.31;101099.78;5050154;28;20437;-36
2022/06/23 08:14:43;;;;;;;7.20;5.97;;;;;;;23.17;60.25;101098.63;5072471;28;20110;-36
2022/06/23 08:17:17;;;;;;;11.80;7.10;;;;;;;23.35;60.56;101100.44;5072915;28;20028;-36
2022/06/23 08:19:56;;;;;;;10.15;6.85;;;;;;;23.48;59.37;101093.25;5072352;28;20103;-36
2022/06/23 08:22:29;;;;;;;12.80;6.70;;;;;;;23.50;59.32;101092.94;5072480;28;20070;-36
2022/06/23 08:24:58;;;;;;;11.13;7.18;;;;;;;23.53;58.79;101087.63;5074482;28;20122;-36
2022/06/23 08:27:28;;;;;;;9.82;6.53;;;;;;;23.63;59.85;101086.56;5076794;28;20033;-36
2022/06/23 08:30:02;;;;;;;9.85;7.03;;;;;;;23.70;59.67;101089.72;5075955;28;20050;-36
2022/06/23 08:32:29;;;;;;;10.50;6.68;;;;;;;23.93;59.35;101086.97;5075859;28;20189;-36
2022/06/23 08:35:08;;;;;;;8.27;6.80;;;;;;;24.04;58.86;101089.13;5076562;28;20036;-36
2022/06/23 08:38:05;;;;;;;10.95;6.63;;;;;;;24.14;59.92;101090.81;5075841;28;20037;-36
2022/06/23 08:40:33;;;;;;;9.45;6.35;;;;;;;24.24;58.28;101073.16;5075324;28;20036;-36
2022/06/23 08:43:29;;;;;;;10.63;5.75;;;;;;;24.48;58.77;101090.19;5076157;28;20035;-36
2022/06/23 08:45:58;;;;;;;12.57;6.72;;;;;;;24.52;59.56;101085.69;5053219;28;20512;-36
2022/06/23 08:48:37;;;;;;;10.93;6.35;;;;;;;24.71;58.04;101085.41;5036948;28;20036;-36
2022/06/23 08:51:29;;;;;;;10.57;6.38;;;;;;;24.84;58.14;101092.78;5053617;28;20037;-36
2022/06/23 08:54:00;;;;;;;10.68;6.53;;;;;;;24.81;57.26;101079.59;4993961;28;20035;-36
2022/06/23 08:57:03;;;;;;;12.20;6.28;;;;;;;25.02;57.93;101090.06;4994318;28;20073;-36
2022/06/23 08:59:38;;;;;;;9.23;6.60;;;;;;;25.22;57.29;101083.91;4993839;28;20061;-37
2022/06/23 09:02:26;;;;;;;12.05;6.05;;;;;;;25.35;57.65;101096.81;4994297;28;20450;-36
2022/06/23 09:05:20;;;;;;;9.13;5.57;;;;;;;25.45;56.56;101084.59;4993547;28;20034;-36
2022/06/23 09:07:57;;;;;;;9.93;5.88;;;;;;;25.61;56.33;101085.72;4993624;28;20058;-36
2022/06/23 09:10:23;;;;;;;11.45;6.43;;;;;;;25.67;55.12;101076.13;4994037;28;20042;-37
2022/06/23 09:13:00;;;;;;;7.78;5.97;;;;;;;25.49;55.82;101066.19;4993804;28;20163;-36
2022/06/23 09:15:40;;;;;;;10.60;6.25;;;;;;;25.71;55.87;101069.91;4994225;28;20440;-36
2022/06/23 09:18:27;;;;;;;10.45;5.70;;;;;;;25.96;55.81;101068.28;4993956;28;20093;-36
2022/06/23 09:21:14;;;;;;;13.65;6.40;;;;;;;25.98;54.92;101058.50;4993424;28;20038;-36
2022/06/23 09:24:09;;;;;;;10.65;6.00;;;;;;;26.06;55.07;101060.44;4993497;28;20104;-37
2022/06/23 09:26:52;;;;;;;8.18;4.45;;;;;;;26.30;54.77;101053.50;4993556;28;20494;-36
2022/06/23 09:29:41;;;;;;;8.93;4.80;;;;;;;26.59;54.56;101052.75;4993408;28;20041;-36
2022/06/23 09:32:13;;;;;;;9.52;4.28;;;;;;;26.68;54.17;101070.16;5071161;28;20032;-37
2022/06/23 09:35:02;;;;;;;6.05;4.05;;;;;;;26.92;53.88;101070.34;5074949;28;20118;-36
2022/06/23 09:37:46;;;;;;;7.78;4.10;;;;;;;26.90;54.03;101053.22;5073663;28;20036;-37
2022/06/23 09:40:29;;;;;;;7.43;3.42;;;;;;;26.96;53.97;101049.09;5075108;28;20032;-36
2022/06/23 09:43:12;;;;;;;9.25;3.15;;;;;;;27.23;53.16;101041.41;5074735;28;20084;-37
2022/06/23 09:46:40;;;;;;;10.07;3.10;;;;;;;27.49;53.73;101048.72;5074539;28;20107;-36
2022/06/23 09:49:21;;;;;;;6.65;2.70;;;;;;;27.65;53.25;101055.28;5052991;28;20029;-37
2022/06/23 09:51:57;;;;;;;12.77;2.90;;;;;;;27.59;52.04;101043.56;5052702;28;20040;-36
2022/06/23 09:54:25;;;;;;;7.00;2.70;;;;;;;27.72;51.15;101050.00;5052341;28;20503;-36
2022/06/23 09:57:02;;;;;;;8.35;2.55;;;;;;;27.92;51.44;101040.81;5052272;28;20033;-36
2022/06/23 09:59:38;;;;;;;6.93;2.40;;;;;;;27.92;50.15;101040.81;5052239;28;20068;-36
2022/06/23 10:02:31;;;;;;;6.53;2.20;;;;;;;28.08;51.57;101042.91;5051845;28;20075;-36
2022/06/23 10:05:18;;;;;;;6.15;2.20;;;;;;;28.15;51.57;101035.63;5051651;28;20513;-37
2022/06/23 10:08:06;;;;;;;7.70;2.45;;;;;;;28.35;50.13;101031.16;5051946;28;20032;-36
2022/06/23 10:10:34;;;;;;;7.20;2.58;;;;;;;28.32;49.91;101034.59;5052284;28;20052;-36
2022/06/23 10:13:23;;;;;;;7.85;2.65;;;;;;;28.22;49.91;101021.97;5051856;28;20064;-36
2022/06/23 10:15:51;;;;;;;7.00;2.70;;;;;;;28.27;50.89;101023.72;5052051;28;20033;-36
2022/06/23 10:18:45;;;;;;;9.63;2.83;;;;;;;28.34;50.13;101023.16;5052145;28;20140;-36
2022/06/23 10:21:18;;;;;;;7.75;2.28;;;;;;;28.53;49.96;101031.75;5074608;28;20029;-36
2022/06/23 10:24:03;;;;;;;6.38;2.60;;;;;;;28.61;48.75;101025.25;5073964;28;20039;-36
2022/06/23 10:26:49;;;;;;;5.72;1.90;;;;;;;28.34;49.24;101007.28;5074118;28;20119;-36
2022/06/23 10:29:28;;;;;;;6.95;2.30;;;;;;;28.12;49.61;101022.44;5073882;28;20021;-36
2022/06/23 10:32:15;;;;;;;7.32;2.63;;;;;;;27.99;49.24;101026.34;5074294;28;20032;-37
2022/06/23 10:34:58;;;;;;;6.93;2.25;;;;;;;28.38;50.76;101029.66;5074427;28;20077;-36
2022/06/23 10:37:42;;;;;;;7.45;2.50;;;;;;;28.60;50.71;101020.03;5073657;28;20032;-36
2022/06/23 10:40:19;;;;;;;7.00;2.20;;;;;;;28.75;51.07;100997.06;5073188;28;20094;-36
2022/06/23 10:43:08;;;;;;;8.50;2.60;;;;;;;28.96;51.41;100994.16;5073981;28;20028;-36
2022/06/23 10:45:51;;;;;;;8.98;3.13;;;;;;;29.36;49.85;101007.22;5073936;28;20044;-36
2022/06/23 10:49:00;;;;;;;5.63;2.15;;;;;;;29.47;48.87;101011.13;5073655;28;20123;-36
2022/06/23 10:51:49;;;;;;;7.15;2.90;;;;;;;29.64;49.51;101007.25;5073174;28;20029;-36
2022/06/23 10:54:25;;;;;;;7.53;2.83;;;;;;;29.50;48.22;100997.31;5073957;28;20029;-36
2022/06/23 10:57:09;;;;;;;6.80;2.42;;;;;;;29.66;50.15;100993.75;5073619;28;20040;-37
2022/06/23 11:00:12;;;;;;;7.93;2.70;;;;;;;29.70;48.92;101000.25;5073591;28;20053;-37
2022/06/23 11:03:05;;;;;;;9.45;2.45;;;;;;;29.16;48.85;100995.94;5073010;28;20070;-37
2022/06/23 11:05:52;;;;;;;7.35;2.88;;;;;;;28.84;49.77;100997.75;5073404;28;20028;-36
2022/06/23 11:08:26;;;;;;;10.55;3.03;;;;;;;28.45;50.46;100999.28;5073253;28;20174;-37
2022/06/23 11:11:18;;;;;;;8.07;3.13;;;;;;;28.24;51.29;100991.84;5073192;28;20024;-36
2022/06/23 11:14:00;;;;;;;8.23;3.30;;;;;;;28.44;50.75;100987.34;5073639;28;20028;-37
2022/06/23 11:16:39;;;;;;;7.13;3.05;;;;;;;28.83;49.59;100992.53;5073086;28;20040;-37
2022/06/23 11:19:19;;;;;;;8.13;3.00;;;;;;;29.12;49.84;100997.81;5073630;28;20032;-37
2022/06/23 11:22:08;;;;;;;7.03;2.78;;;;;;;29.35;49.67;100992.50;5073578;28;20031;-37
2022/06/23 11:25:01;;;;;;;6.38;2.67;;;;;;;29.54;48.49;100986.28;5073463;28;20024;-37
2022/06/23 11:27:39;;;;;;;9.65;3.25;;;;;;;29.70;47.65;100980.75;5073027;28;20063;-37
2022/06/23 11:30:23;;;;;;;8.05;2.90;;;;;;;29.89;47.01;100986.44;5073657;28;20078;-37
2022/06/23 11:33:06;;;;;;;8.95;3.60;;;;;;;30.12;47.90;100988.59;5073373;28;20059;-37
2022/06/23 11:35:50;;;;;;;6.22;3.42;;;;;;;30.23;48.70;100984.13;5073322;28;20059;-37
2022/06/23 11:38:45;;;;;;;8.68;3.33;;;;;;;30.39;47.40;100976.53;5073075;28;20461;-37
2022/06/23 11:41:39;;;;;;;7.78;2.95;;;;;;;30.59;48.47;100982.97;5073288;28;20420;-37
2022/06/23 11:44:14;;;;;;;5.05;2.80;;;;;;;30.83;45.15;100962.41;5073300;28;20032;-37
2022/06/23 11:47:07;;;;;;;8.52;2.90;;;;;;;30.87;47.57;100970.88;5073489;28;20123;-37
2022/06/23 11:49:57;;;;;;;9.95;3.08;;;;;;;30.64;44.82;100973.50;5073501;28;20029;-37
2022/06/23 11:52:41;;;;;;;7.70;2.80;;;;;;;30.27;45.64;100976.66;5073006;28;20483;-37
2022/06/23 11:55:12;;;;;;;8.50;2.63;;;;;;;29.79;45.37;100969.44;5072701;28;20031;-37
2022/06/23 11:58:03;;;;;;;8.23;2.80;;;;;;;29.60;45.68;100972.91;5072604;28;20037;-37
2022/06/23 12:00:44;;;;;;;8.90;2.70;;;;;;;29.83;47.53;100962.78;5075399;28;20049;-37
2022/06/23 12:03:15;;;;;;;7.20;2.78;;;;;;;30.13;45.61;100952.00;5077256;28;20120;-37
2022/06/23 12:06:05;;;;;;;8.32;2.80;;;;;;;30.38;45.43;100951.78;5076424;28;20025;-37
2022/06/23 12:08:46;;;;;;;6.45;2.60;;;;;;;30.15;45.48;100965.59;5076473;28;20056;-37
2022/06/23 12:11:11;;;;;;;9.05;2.80;;;;;;;29.84;45.50;100967.19;5076348;28;20055;-37
2022/06/23 12:13:37;;;;;;;6.82;2.80;;;;;;;29.57;45.96;100954.91;5076280;28;20028;-37
2022/06/23 12:16:03;;;;;;;8.20;2.90;;;;;;;29.86;47.14;100953.69;5076248;28;20036;-36
2022/06/23 12:18:48;;;;;;;7.22;2.50;;;;;;;30.38;46.33;100952.59;5075794;28;20563;-37
2022/06/23 12:21:37;;;;;;;6.18;2.53;;;;;;;30.83;45.45;100948.44;5076229;28;20024;-37
2022/06/23 12:24:17;;;;;;;8.18;2.55;;;;;;;31.04;45.05;100936.94;5076609;28;20470;-37
2022/06/23 12:26:49;;;;;;;7.28;2.33;;;;;;;31.38;43.54;100943.63;5076686;28;20029;-36